Time;durP1;ratioP1;P1;durP2;ratioP2;P2;SDS_P1;SDS_P2;PMS_P1;PMS_P2;Temp;Humidity;BMP_temperature;BMP_pressure;BME280_temperature;BME280_humidity;BME280_pressure;Samples;Min_cycle;Max_cycle;Signal;HPM_P1;HPM_P2
2023/04/26 00:00:13;;;;;;;8.73;4.18;;;;;;;3.08;83.88;101892.84;5075048;28;20398;-67
2023/04/26 00:02:38;;;;;;;6.22;3.00;;;;;;;3.05;84.04;101894.31;5075004;28;20077;-67
2023/04/26 00:05:06;;;;;;;8.80;4.03;;;;;;;3.05;84.39;101894.31;5075069;28;20196;-67
2023/04/26 00:07:31;;;;;;;7.70;3.47;;;;;;;3.08;84.15;101892.84;5074214;28;20127;-67
2023/04/26 00:09:56;;;;;;;6.95;3.40;;;;;;;3.13;84.59;101888.94;5074913;28;20566;-67
2023/04/26 00:12:22;;;;;;;9.85;4.18;;;;;;;3.16;83.88;101885.69;5074381;28;20024;-67
2023/04/26 00:14:47;;;;;;;8.73;4.10;;;;;;;3.17;83.46;101890.03;5075403;28;20469;-67
2023/04/26 00:17:13;;;;;;;10.02;4.20;;;;;;;3.21;83.02;101894.59;5074947;28;20031;-67
2023/04/26 00:19:38;;;;;;;9.07;3.70;;;;;;;3.23;82.98;101895.63;5074325;28;20016;-67
2023/04/26 00:22:04;;;;;;;9.32;3.67;;;;;;;3.23;82.77;101885.31;5073700;28;20054;-67
2023/04/26 00:24:31;;;;;;;6.55;3.30;;;;;;;3.20;82.39;101890.28;5075081;28;20028;-67
2023/04/26 00:26:56;;;;;;;9.43;3.65;;;;;;;3.17;82.86;101891.72;5074472;28;20035;-67
2023/04/26 00:29:22;;;;;;;8.90;4.07;;;;;;;3.14;82.67;101884.66;5074915;28;20437;-67
2023/04/26 00:31:47;;;;;;;10.88;4.38;;;;;;;3.12;82.73;101892.28;5074413;28;20020;-67
2023/04/26 00:34:12;;;;;;;7.95;4.18;;;;;;;3.13;82.94;101888.03;5056087;28;20404;-67
2023/04/26 00:36:38;;;;;;;9.50;4.30;;;;;;;3.10;82.50;101886.13;5073172;28;20072;-67
2023/04/26 00:39:03;;;;;;;9.10;3.83;;;;;;;3.11;82.72;101893.09;5056124;28;20501;-67
2023/04/26 00:41:28;;;;;;;11.00;5.00;;;;;;;3.10;83.03;101892.94;5074230;28;20057;-67
2023/04/26 00:43:54;;;;;;;11.68;5.00;;;;;;;3.10;82.67;101891.28;5073889;28;20046;-67
2023/04/26 00:46:21;;;;;;;9.43;4.80;;;;;;;3.09;82.77;101896.34;5074916;28;20123;-67
2023/04/26 00:48:46;;;;;;;10.43;4.97;;;;;;;3.09;82.94;101889.50;5073717;28;20032;-67
2023/04/26 00:51:12;;;;;;;8.85;4.70;;;;;;;3.07;82.65;101892.72;5074125;28;20025;-67
2023/04/26 00:53:38;;;;;;;11.00;5.07;;;;;;;3.05;82.78;101900.34;5073097;28;20039;-67
2023/04/26 00:56:06;;;;;;;9.90;4.65;;;;;;;3.02;82.84;101894.09;5072038;28;20052;-67
2023/04/26 00:58:32;;;;;;;8.35;4.10;;;;;;;3.00;82.59;101894.00;5055830;28;20027;-67
2023/04/26 01:00:57;;;;;;;9.65;4.68;;;;;;;3.00;82.72;101890.50;5074660;28;20031;-67
2023/04/26 01:03:23;;;;;;;10.88;4.30;;;;;;;2.98;82.92;101890.41;5073311;28;20099;-67
2023/04/26 01:05:49;;;;;;;11.02;4.75;;;;;;;2.99;82.88;101893.91;5073601;28;20074;-67
2023/04/26 01:08:19;;;;;;;11.07;4.82;;;;;;;3.02;83.12;101886.38;5073612;28;20023;-67
2023/04/26 01:10:46;;;;;;;10.55;4.10;;;;;;;3.01;83.17;101888.03;5074235;28;20047;-67
2023/04/26 01:13:13;;;;;;;10.30;4.43;;;;;;;3.01;83.17;101892.31;5073293;28;20044;-67
2023/04/26 01:15:42;;;;;;;9.35;4.35;;;;;;;2.96;83.71;101892.88;5078605;28;20032;-67
2023/04/26 01:18:08;;;;;;;9.55;4.05;;;;;;;2.93;83.09;101890.09;5077799;28;20483;-67
2023/04/26 01:20:33;;;;;;;8.77;4.43;;;;;;;2.90;83.72;101888.97;5077838;28;20035;-67
2023/04/26 01:22:59;;;;;;;11.63;4.50;;;;;;;2.88;83.31;101891.44;5077359;28;20392;-67
2023/04/26 01:25:25;;;;;;;8.45;4.53;;;;;;;2.85;83.75;101892.91;5077496;28;20468;-67
2023/04/26 01:27:50;;;;;;;11.50;5.05;;;;;;;2.85;83.96;101891.19;5077408;28;20040;-67
2023/04/26 01:30:15;;;;;;;9.73;4.75;;;;;;;2.87;83.90;101886.16;5078062;28;20491;-67
2023/04/26 01:32:41;;;;;;;11.00;4.90;;;;;;;2.85;83.91;101896.34;5077617;28;20031;-67
2023/04/26 01:35:07;;;;;;;10.18;4.63;;;;;;;2.83;83.77;101897.94;5077781;28;20024;-67
2023/04/26 01:37:32;;;;;;;10.05;4.38;;;;;;;2.82;83.89;101898.72;5059658;28;20031;-67
2023/04/26 01:39:57;;;;;;;8.88;3.95;;;;;;;2.80;83.73;101897.72;5076783;28;20021;-67
2023/04/26 01:42:23;;;;;;;9.55;5.10;;;;;;;2.81;83.43;101902.09;5077599;28;20024;-67
2023/04/26 01:44:48;;;;;;;8.40;4.55;;;;;;;2.79;83.76;101898.50;5077756;28;20024;-67
2023/04/26 01:47:14;;;;;;;11.02;4.05;;;;;;;2.76;83.59;101899.16;5077637;28;20459;-67
2023/04/26 01:49:40;;;;;;;9.63;4.57;;;;;;;2.74;83.12;101897.28;5077061;28;20051;-67
2023/04/26 01:52:05;;;;;;;9.27;4.63;;;;;;;2.69;84.03;101896.03;5077407;28;20020;-67
2023/04/26 01:54:31;;;;;;;8.82;4.40;;;;;;;2.64;84.79;101892.25;5077837;28;20039;-67
2023/04/26 01:56:56;;;;;;;10.27;4.88;;;;;;;2.58;85.40;101885.00;5077619;28;20062;-67
2023/04/26 01:59:21;;;;;;;11.45;4.55;;;;;;;2.50;85.80;101896.38;5076639;28;20153;-66
2023/04/26 02:01:46;;;;;;;10.73;4.40;;;;;;;2.44;85.93;101904.53;5077224;28;20479;-67
2023/04/26 02:04:12;;;;;;;9.95;4.88;;;;;;;2.38;86.27;101896.38;5076763;28;20110;-67
2023/04/26 02:06:37;;;;;;;11.73;4.75;;;;;;;2.33;86.10;101897.72;5077841;28;20107;-67
2023/04/26 02:09:03;;;;;;;10.55;4.70;;;;;;;2.30;85.93;101892.34;5076395;28;20036;-67
2023/04/26 02:11:29;;;;;;;11.02;4.68;;;;;;;2.29;86.17;101895.69;5076473;28;20028;-67
2023/04/26 02:13:54;;;;;;;10.23;4.43;;;;;;;2.31;86.49;101904.44;5077759;28;20360;-67
2023/04/26 02:16:20;;;;;;;11.35;4.95;;;;;;;2.32;86.05;101901.06;5077524;28;20024;-67
2023/04/26 02:18:46;;;;;;;9.50;4.55;;;;;;;2.29;85.80;101896.59;5077095;28;20483;-67
2023/04/26 02:21:11;;;;;;;11.15;4.70;;;;;;;2.29;85.60;101898.25;5057970;28;20031;-67
2023/04/26 02:23:37;;;;;;;11.80;4.97;;;;;;;2.26;84.85;101899.84;5076759;28;20440;-67
2023/04/26 02:26:03;;;;;;;10.45;4.38;;;;;;;2.26;84.77;101896.38;5076052;28;20387;-67
2023/04/26 02:28:28;;;;;;;8.93;4.30;;;;;;;2.23;85.33;101902.19;5075809;28;20036;-67
2023/04/26 02:30:55;;;;;;;8.57;4.10;;;;;;;2.17;85.19;101899.16;5056948;28;20031;-67
2023/04/26 02:33:20;;;;;;;10.80;4.38;;;;;;;2.09;86.28;101890.84;5075880;28;20024;-67
2023/04/26 02:35:46;;;;;;;10.77;4.57;;;;;;;2.03;86.43;101886.97;5077068;28;20028;-67
2023/04/26 02:38:11;;;;;;;9.70;4.72;;;;;;;1.96;86.46;101892.41;5058708;28;20033;-67
2023/04/26 02:40:36;;;;;;;7.45;3.63;;;;;;;1.83;86.56;101888.03;5077135;28;20101;-67
2023/04/26 02:43:02;;;;;;;11.02;4.50;;;;;;;1.81;87.47;101892.13;5077050;28;20024;-67
2023/04/26 02:45:27;;;;;;;9.55;4.15;;;;;;;1.81;87.13;101890.47;5058487;28;20062;-67
2023/04/26 02:47:52;;;;;;;12.63;4.50;;;;;;;1.80;86.69;101888.69;5076894;28;20028;-67
2023/04/26 02:50:18;;;;;;;8.85;4.32;;;;;;;1.81;86.32;101892.13;5076173;28;20026;-67
2023/04/26 02:52:43;;;;;;;10.25;4.63;;;;;;;1.79;86.39;101892.00;5076849;28;20118;-67
2023/04/26 02:55:09;;;;;;;13.23;4.72;;;;;;;1.78;86.58;101886.75;5076448;28;20031;-67
2023/04/26 02:57:34;;;;;;;12.60;4.68;;;;;;;1.74;86.20;101886.53;5076464;28;20016;-67
2023/04/26 03:00:00;;;;;;;10.82;5.38;;;;;;;1.73;87.18;101887.31;5076275;28;20028;-67
2023/04/26 03:02:25;;;;;;;14.02;5.70;;;;;;;1.74;86.50;101883.06;5075787;28;20021;-67
2023/04/26 03:04:51;;;;;;;12.30;5.15;;;;;;;1.73;86.62;101878.72;5076748;28;20103;-68
2023/04/26 03:07:16;;;;;;;11.90;5.13;;;;;;;1.71;87.35;101876.03;5076334;28;20048;-67
2023/04/26 03:09:42;;;;;;;10.15;4.93;;;;;;;1.71;87.43;101868.31;5076039;28;20338;-67
2023/04/26 03:12:07;;;;;;;13.77;5.22;;;;;;;1.70;87.05;101876.78;5075109;28;20391;-67
2023/04/26 03:14:33;;;;;;;11.98;5.32;;;;;;;1.67;87.42;101870.53;5076044;28;20117;-67
2023/04/26 03:16:59;;;;;;;9.90;4.72;;;;;;;1.68;87.68;101873.22;5074989;28;20111;-67
2023/04/26 03:19:26;;;;;;;10.27;4.28;;;;;;;1.69;86.76;101868.97;5075650;28;20158;-67
2023/04/26 03:21:51;;;;;;;12.85;5.18;;;;;;;1.68;86.85;101869.75;5074733;28;20021;-67
2023/04/26 03:24:17;;;;;;;11.32;5.32;;;;;;;1.71;87.00;101873.47;5075763;28;20034;-67
2023/04/26 03:26:42;;;;;;;14.10;5.78;;;;;;;1.69;86.40;101863.84;5076024;28;20492;-68
2023/04/26 03:29:07;;;;;;;12.18;5.55;;;;;;;1.69;86.66;101864.72;5057044;28;20461;-67
2023/04/26 03:31:33;;;;;;;11.70;5.57;;;;;;;1.69;87.09;101867.28;5074559;28;20551;-67
2023/04/26 03:33:58;;;;;;;12.18;5.22;;;;;;;1.68;87.08;101862.94;5075209;28;20051;-67
2023/04/26 03:36:23;;;;;;;10.60;4.95;;;;;;;1.68;87.19;101872.31;5075812;28;20539;-67
2023/04/26 03:38:49;;;;;;;14.52;5.55;;;;;;;1.63;86.47;101868.53;5075681;28;20084;-67
2023/04/26 03:41:14;;;;;;;11.18;5.35;;;;;;;1.59;87.08;101861.34;5075403;28;20028;-67
2023/04/26 03:43:39;;;;;;;10.75;5.47;;;;;;;1.58;86.95;101862.13;5074952;28;20043;-68
2023/04/26 03:46:05;;;;;;;12.70;5.72;;;;;;;1.59;86.81;101857.09;5074783;28;20566;-68
2023/04/26 03:48:30;;;;;;;11.93;5.70;;;;;;;1.60;85.84;101866.59;5075708;28;20494;-68
2023/04/26 03:50:55;;;;;;;11.75;5.10;;;;;;;1.59;85.91;101867.38;5075378;28;20468;-68
2023/04/26 03:53:21;;;;;;;12.68;5.60;;;;;;;1.59;86.40;101858.78;5056442;28;20691;-68
2023/04/26 03:55:46;;;;;;;11.18;4.90;;;;;;;1.58;85.83;101864.69;5075535;28;20541;-68
2023/04/26 03:58:12;;;;;;;13.48;6.40;;;;;;;1.56;85.61;101869.72;5056201;28;20028;-66
2023/04/26 04:00:38;;;;;;;12.48;5.32;;;;;;;1.53;85.22;101880.63;5056916;28;20039;-68
2023/04/26 04:03:05;;;;;;;11.40;5.57;;;;;;;1.50;86.15;101877.84;5074836;28;20032;-67
2023/04/26 04:05:31;;;;;;;27.05;13.48;;;;;;;1.51;85.60;101877.06;5074383;28;20033;-68
2023/04/26 04:07:56;;;;;;;12.98;6.65;;;;;;;1.49;85.83;101870.94;5074393;28;20118;-68
2023/04/26 04:10:22;;;;;;;13.23;6.60;;;;;;;1.47;86.12;101875.03;5073805;28;20232;-69
2023/04/26 04:12:48;;;;;;;10.82;5.30;;;;;;;1.46;86.36;101869.78;5107452;22;20053;-96
2023/04/26 04:15:13;;;;;;;12.57;5.80;;;;;;;1.43;85.83;101865.31;5033898;28;20036;-95
2023/04/26 04:17:39;;;;;;;11.80;5.38;;;;;;;1.44;86.54;101866.22;5026254;28;20478;-96
2023/04/26 04:22:55;;;;;;;13.98;5.20;;;;;;;1.45;87.33;101862.84;5166275;22;20064;-67
2023/04/26 04:25:21;;;;;;;10.02;5.00;;;;;;;1.41;86.88;101872.00;5051182;28;20032;-68
2023/04/26 04:27:47;;;;;;;11.68;5.88;;;;;;;1.34;88.03;101862.91;5052674;28;20504;-67
2023/04/26 04:30:13;;;;;;;10.80;5.38;;;;;;;1.31;87.65;101862.69;5045823;28;20108;-67
2023/04/26 04:32:39;;;;;;;11.00;5.18;;;;;;;1.31;87.92;101872.06;5053150;28;20025;-67
2023/04/26 04:35:06;;;;;;;13.73;6.18;;;;;;;1.31;87.38;101872.06;5053365;28;20040;-67
2023/04/26 04:37:34;;;;;;;10.88;4.85;;;;;;;1.29;88.35;101871.97;5050046;28;20040;-67
2023/04/26 04:39:59;;;;;;;13.75;5.72;;;;;;;1.29;88.17;101871.03;5053523;28;20407;-67
2023/04/26 04:42:26;;;;;;;12.35;5.80;;;;;;;1.32;88.31;101871.31;5053481;28;20029;-67
2023/04/26 04:44:52;;;;;;;14.98;6.75;;;;;;;1.35;88.10;101879.25;5052756;28;20503;-67
2023/04/26 04:47:17;;;;;;;12.38;6.28;;;;;;;1.38;87.54;101882.03;5054550;28;20052;-67
2023/04/26 04:49:42;;;;;;;13.80;6.45;;;;;;;1.41;87.70;101884.84;5052205;28;20056;-67
2023/04/26 04:52:07;;;;;;;11.80;5.53;;;;;;;1.44;88.15;101882.50;5053754;28;20040;-67
2023/04/26 04:54:33;;;;;;;10.88;5.68;;;;;;;1.43;88.54;101890.97;5051643;28;20032;-67
2023/04/26 04:56:58;;;;;;;12.48;5.82;;;;;;;1.40;88.35;101890.75;5053016;28;20487;-67
2023/04/26 04:59:24;;;;;;;28.10;16.02;;;;;;;1.42;88.54;101893.44;5036115;28;20037;-67
2023/04/26 05:01:50;;;;;;;24.08;12.40;;;;;;;1.46;88.63;101896.34;5053270;28;20025;-67
2023/04/26 05:04:15;;;;;;;14.32;7.47;;;;;;;1.52;89.07;101896.84;5051574;28;20103;-67
2023/04/26 05:06:41;;;;;;;12.18;6.07;;;;;;;1.59;89.05;101899.88;5051422;28;20060;-67
2023/04/26 05:09:07;;;;;;;14.80;6.72;;;;;;;1.63;88.65;101900.22;5052863;28;20032;-67
2023/04/26 05:11:32;;;;;;;15.48;5.97;;;;;;;1.69;89.09;101897.22;5053878;28;20036;-67
2023/04/26 05:13:58;;;;;;;12.50;6.40;;;;;;;1.75;89.42;101895.13;5035652;28;20025;-67
2023/04/26 05:16:23;;;;;;;14.23;6.95;;;;;;;1.82;89.43;101902.53;5052087;28;20036;-67
2023/04/26 05:18:48;;;;;;;13.18;6.13;;;;;;;1.90;89.44;101905.69;5052300;28;20028;-67
2023/04/26 05:21:14;;;;;;;13.23;6.88;;;;;;;1.96;89.70;101906.16;5054122;28;20481;-67
2023/04/26 05:23:40;;;;;;;13.43;6.78;;;;;;;2.00;89.71;101903.03;5070401;28;20099;-67
2023/04/26 05:26:06;;;;;;;16.90;7.20;;;;;;;2.07;89.17;101904.38;5072634;28;20020;-67
2023/04/26 05:28:33;;;;;;;15.63;7.00;;;;;;;2.07;90.00;101904.38;5073901;28;20034;-67
2023/04/26 05:30:58;;;;;;;14.95;6.78;;;;;;;2.10;89.99;101896.91;5073679;28;20039;-67
2023/04/26 05:33:24;;;;;;;15.48;7.13;;;;;;;2.18;90.18;101895.78;5071520;28;20016;-67
2023/04/26 05:35:51;;;;;;;16.00;7.70;;;;;;;2.25;90.44;101895.47;5072601;28;20040;-67
2023/04/26 05:38:17;;;;;;;14.35;7.32;;;;;;;2.32;89.99;101901.06;5072253;28;20050;-67
2023/04/26 05:40:42;;;;;;;17.00;8.45;;;;;;;2.36;90.56;101898.84;5072338;28;20028;-67
2023/04/26 05:43:07;;;;;;;17.83;7.90;;;;;;;2.41;90.44;101906.91;5071823;28;20131;-67
2023/04/26 05:45:32;;;;;;;17.35;8.10;;;;;;;2.42;89.96;101908.69;5068829;28;20020;-67
2023/04/26 05:47:58;;;;;;;15.30;8.43;;;;;;;2.41;90.86;101912.03;5054573;28;20031;-67
2023/04/26 05:50:23;;;;;;;16.25;8.25;;;;;;;2.43;91.12;101911.38;5073380;28;20039;-67
2023/04/26 05:52:48;;;;;;;19.25;8.60;;;;;;;2.48;91.31;101911.72;5073240;28;20024;-67
2023/04/26 05:55:14;;;;;;;15.80;8.60;;;;;;;2.55;91.18;101900.16;5069898;28;20475;-67
2023/04/26 05:57:39;;;;;;;17.67;8.82;;;;;;;2.65;91.00;101910.38;5070616;28;20034;-67
2023/04/26 06:00:05;;;;;;;27.83;13.82;;;;;;;2.73;91.00;101910.94;5072243;28;20384;-67
2023/04/26 06:02:30;;;;;;;35.70;20.73;;;;;;;2.78;91.09;101910.47;5074861;28;20032;-67
2023/04/26 06:04:56;;;;;;;23.52;11.30;;;;;;;2.84;91.21;101910.03;5074296;28;20058;-67
2023/04/26 06:07:21;;;;;;;19.52;9.20;;;;;;;2.92;91.07;101902.84;5075234;28;20031;-67
2023/04/26 06:09:47;;;;;;;18.88;8.82;;;;;;;2.96;91.12;101905.75;5073536;28;20146;-67
2023/04/26 06:12:12;;;;;;;17.77;9.48;;;;;;;3.05;90.97;101904.63;5077430;28;20105;-67
2023/04/26 06:14:37;;;;;;;20.05;9.45;;;;;;;3.17;91.25;101904.59;5071057;28;20047;-67
2023/04/26 06:17:03;;;;;;;20.17;9.80;;;;;;;3.26;90.83;101908.72;5071528;28;20036;-67
2023/04/26 06:19:29;;;;;;;17.02;8.98;;;;;;;3.38;91.56;101908.69;5075443;28;20028;-67
2023/04/26 06:21:55;;;;;;;21.30;9.32;;;;;;;3.52;92.46;101912.22;5073815;28;20057;-67
2023/04/26 06:24:22;;;;;;;16.30;8.85;;;;;;;3.67;92.19;101911.50;5073386;28;20020;-67
2023/04/26 06:26:47;;;;;;;19.17;9.23;;;;;;;3.78;92.04;101918.25;5073288;28;20029;-67
2023/04/26 06:29:12;;;;;;;19.25;9.50;;;;;;;3.87;91.50;101916.31;5076421;28;20024;-67
2023/04/26 06:31:38;;;;;;;16.67;8.75;;;;;;;3.91;91.17;101914.84;5072826;28;20085;-67
2023/04/26 06:34:03;;;;;;;16.77;8.45;;;;;;;3.94;90.49;101926.25;5056644;28;20505;-67
2023/04/26 06:36:29;;;;;;;18.90;8.73;;;;;;;4.04;91.42;101924.28;5073611;28;20025;-67
2023/04/26 06:38:55;;;;;;;20.00;8.90;;;;;;;4.15;91.59;101931.97;5073374;28;20028;-67
2023/04/26 06:41:21;;;;;;;16.15;8.13;;;;;;;4.26;91.51;101931.78;5069443;28;20538;-67
2023/04/26 06:43:46;;;;;;;18.38;9.20;;;;;;;4.41;91.88;101937.09;5072552;28;20024;-67
2023/04/26 06:46:12;;;;;;;19.05;9.13;;;;;;;4.56;91.62;101940.66;5074511;28;20446;-67
2023/04/26 06:48:37;;;;;;;28.83;13.95;;;;;;;4.69;90.63;101938.09;5071298;28;20501;-67
2023/04/26 06:51:06;;;;;;;19.27;8.68;;;;;;;4.83;91.07;101930.34;5075302;28;20024;-67
2023/04/26 06:53:32;;;;;;;19.30;8.65;;;;;;;4.95;90.53;101931.13;5072353;28;20020;-67
2023/04/26 06:55:57;;;;;;;15.80;7.97;;;;;;;5.04;89.59;101930.84;5074894;28;20515;-67
2023/04/26 06:58:22;;;;;;;17.23;8.52;;;;;;;5.12;89.55;101933.91;5072835;28;20024;-67
2023/04/26 07:00:48;;;;;;;17.95;8.43;;;;;;;5.13;87.61;101925.38;5075567;28;20037;-67
2023/04/26 07:03:13;;;;;;;17.05;7.88;;;;;;;5.14;88.77;101927.13;5073834;28;20051;-67
2023/04/26 07:05:39;;;;;;;19.17;8.38;;;;;;;5.19;88.98;101925.75;5071750;28;20032;-67
2023/04/26 07:08:05;;;;;;;16.33;8.40;;;;;;;5.32;89.19;101937.75;5068188;28;20110;-67
2023/04/26 07:10:30;;;;;;;16.02;7.55;;;;;;;5.45;89.77;101926.50;5070707;28;20044;-67
2023/04/26 07:12:55;;;;;;;13.80;7.40;;;;;;;5.58;88.15;101931.59;5054553;28;20070;-68
2023/04/26 07:15:21;;;;;;;15.68;7.25;;;;;;;5.68;86.59;101936.53;5073739;28;20032;-68
2023/04/26 07:17:46;;;;;;;13.73;7.30;;;;;;;5.74;86.47;101931.72;5053572;28;20024;-67
2023/04/26 07:20:14;;;;;;;15.60;7.18;;;;;;;5.82;85.66;101941.66;5070152;28;20077;-67
2023/04/26 07:22:39;;;;;;;11.25;6.85;;;;;;;5.85;85.46;101942.75;5069150;28;20040;-67
2023/04/26 07:25:05;;;;;;;12.45;7.13;;;;;;;5.95;85.67;101938.13;5072122;28;20501;-67
2023/04/26 07:27:30;;;;;;;13.93;7.55;;;;;;;6.09;86.63;101937.28;5067205;28;20031;-67
2023/04/26 07:29:56;;;;;;;14.18;7.25;;;;;;;6.22;84.92;101942.38;5037694;28;20518;-68
2023/04/26 07:32:21;;;;;;;12.60;6.72;;;;;;;6.31;83.86;101935.97;5074542;28;20055;-67
2023/04/26 07:34:46;;;;;;;12.63;6.43;;;;;;;6.33;81.71;101937.84;5071620;28;20024;-67
2023/04/26 07:37:12;;;;;;;12.18;6.78;;;;;;;6.38;82.69;101936.38;5069021;28;20388;-67
2023/04/26 07:39:37;;;;;;;12.05;5.70;;;;;;;6.48;82.13;101926.59;5068324;28;20518;-67
2023/04/26 07:42:02;;;;;;;12.68;5.57;;;;;;;6.56;82.30;101927.91;5066009;28;20061;-67
2023/04/26 07:44:28;;;;;;;12.98;5.97;;;;;;;6.63;81.25;101922.28;5049566;28;20037;-67
2023/04/26 07:46:53;;;;;;;12.65;6.25;;;;;;;6.71;80.74;101923.59;5049713;28;20063;-67
2023/04/26 07:49:19;;;;;;;12.73;5.57;;;;;;;6.82;80.07;101928.50;5072078;28;20391;-67
2023/04/26 07:51:44;;;;;;;11.57;4.65;;;;;;;6.93;78.64;101924.81;5072450;28;20023;-67
2023/04/26 07:54:10;;;;;;;8.73;4.18;;;;;;;7.01;75.44;101923.56;5069021;28;20081;-67
2023/04/26 07:56:35;;;;;;;9.80;4.90;;;;;;;7.04;75.47;101934.09;5068706;28;20119;-67
2023/04/26 07:59:01;;;;;;;10.95;3.85;;;;;;;7.07;76.29;101928.19;5070915;28;20028;-67
2023/04/26 08:01:26;;;;;;;6.97;3.50;;;;;;;7.10;75.14;101933.53;5050929;28;20043;-67
2023/04/26 08:03:53;;;;;;;10.25;3.90;;;;;;;7.23;76.23;101927.34;5070168;28;20102;-68
2023/04/26 08:06:21;;;;;;;10.20;4.30;;;;;;;7.37;77.90;101930.66;5057630;22;20140;-96
2023/04/26 08:08:54;;;;;;;6.60;2.55;;;;;;;7.43;74.56;101942.25;5019218;28;20042;-96
2023/04/26 08:11:26;;;;;;;7.38;2.80;;;;;;;7.43;72.10;101944.84;5024326;28;20022;-96
2023/04/26 08:14:03;;;;;;;7.50;3.10;;;;;;;7.45;74.21;101940.63;5022034;28;20068;-96
2023/04/26 08:16:31;;;;;;;6.75;3.10;;;;;;;7.63;72.41;101939.84;5026256;28;20041;-96
2023/04/26 08:19:11;;;;;;;;;;;;;;;;;;;;;
2023/04/26 08:22:16;;;;;;;6.55;2.78;;;;;;;8.13;74.04;101953.69;5038698;28;20108;-96
2023/04/26 08:24:57;;;;;;;;;;;;;;;;;;;;;
2023/04/26 08:27:23;;;;;;;6.03;2.42;;;;;;;8.01;68.17;101941.84;5040704;28;20081;-96
2023/04/26 08:29:59;;;;;;;;;;;;;;;;;;;;;
2023/04/26 08:32:27;;;;;;;4.15;1.67;;;;;;;7.77;66.88;101938.84;5037234;28;20108;-95
2023/04/26 08:34:52;;;;;;;5.75;2.10;;;;;;;7.79;67.57;101942.44;5027288;23;20072;-67
2023/04/26 08:37:18;;;;;;;7.20;3.00;;;;;;;7.87;68.67;101941.97;5031111;28;20059;-68
2023/04/26 08:39:43;;;;;;;8.80;3.20;;;;;;;7.91;68.93;101933.53;5031608;28;20029;-68
2023/04/26 08:42:15;;;;;;;7.38;2.75;;;;;;;7.86;66.25;101935.84;5028952;28;20079;-67
2023/04/26 08:44:43;;;;;;;10.60;3.15;;;;;;;7.81;65.29;101945.13;5030221;28;20041;-67
2023/04/26 08:47:17;;;;;;;6.70;3.13;;;;;;;7.82;66.79;101933.91;5030867;28;20029;-67
2023/04/26 08:50:03;;;;;;;7.65;2.72;;;;;;;7.83;66.87;101936.63;5031488;28;20025;-67
2023/04/26 08:52:31;;;;;;;7.40;2.97;;;;;;;7.81;65.46;101935.63;5032594;28;20025;-67
2023/04/26 08:54:58;;;;;;;8.05;2.75;;;;;;;7.82;66.37;101937.41;5014234;28;20057;-68
2023/04/26 08:57:23;;;;;;;7.82;2.92;;;;;;;7.83;67.51;101928.81;5029535;28;20055;-67
2023/04/26 08:59:52;;;;;;;5.90;2.67;;;;;;;7.90;68.26;101927.41;5031100;28;20404;-67
2023/04/26 09:02:20;;;;;;;7.30;2.70;;;;;;;8.09;66.18;101937.03;5029470;28;20025;-68
2023/04/26 09:04:47;;;;;;;6.95;2.78;;;;;;;8.34;64.68;101933.09;5011563;28;20509;-67
2023/04/26 09:07:39;;;;;;;9.48;3.22;;;;;;;8.77;67.05;101929.19;5029265;28;20045;-67
2023/04/26 09:10:05;;;;;;;9.30;3.40;;;;;;;9.17;69.13;101915.47;5028458;28;20029;-68
2023/04/26 09:12:31;;;;;;;7.18;3.50;;;;;;;9.51;69.82;101917.91;5013344;28;20392;-67
2023/04/26 09:14:56;;;;;;;8.63;3.08;;;;;;;9.66;63.54;101912.50;5030028;28;20029;-67
2023/04/26 09:17:25;;;;;;;8.77;2.78;;;;;;;9.48;60.72;101912.56;5028902;28;20033;-68
2023/04/26 09:19:50;;;;;;;7.32;3.28;;;;;;;9.32;61.62;101917.88;5012056;28;20037;-67
2023/04/26 09:22:30;;;;;;;4.95;3.00;;;;;;;9.10;63.62;101916.91;5028653;28;20029;-67
2023/04/26 09:24:56;;;;;;;6.93;3.17;;;;;;;9.04;63.13;101911.41;5008721;28;20033;-67
2023/04/26 09:27:21;;;;;;;5.93;2.90;;;;;;;9.06;64.63;101899.38;5029467;28;20021;-67
2023/04/26 09:29:58;;;;;;;8.50;3.20;;;;;;;9.15;65.29;101902.41;5025910;28;20021;-67
2023/04/26 09:32:25;;;;;;;7.10;3.20;;;;;;;9.13;60.88;101906.63;5026703;28;20032;-67
2023/04/26 09:34:50;;;;;;;5.75;2.80;;;;;;;9.10;63.25;101909.09;5030589;28;20045;-67
2023/04/26 09:37:16;;;;;;;7.28;3.00;;;;;;;9.05;61.08;101915.78;5026466;28;20064;-67
2023/04/26 09:39:41;;;;;;;7.43;3.40;;;;;;;8.99;62.77;101911.19;5032956;28;20503;-67
2023/04/26 09:42:08;;;;;;;11.60;6.57;;;;;;;8.94;63.02;101923.06;5029591;28;20040;-67
2023/04/26 09:44:36;;;;;;;14.20;11.43;;;;;;;8.90;63.11;101922.88;5082833;23;20054;-96
2023/04/26 09:47:04;;;;;;;7.13;3.83;;;;;;;8.87;64.05;101921.00;5038018;28;20025;-96
2023/04/26 09:49:51;;;;;;;7.75;4.22;;;;;;;8.86;63.08;101921.81;5033794;28;20315;-96
2023/04/26 09:52:18;;;;;;;8.45;4.45;;;;;;;8.88;65.26;101915.88;5068645;22;20035;-68
2023/04/26 09:54:52;;;;;;;6.65;4.00;;;;;;;9.00;66.66;101917.28;5036597;28;20036;-67
2023/04/26 09:57:18;;;;;;;8.65;3.80;;;;;;;9.12;67.42;101914.38;5020305;28;20033;-67
2023/04/26 09:59:45;;;;;;;7.82;4.00;;;;;;;9.16;66.85;101914.56;5037374;28;20136;-67
2023/04/26 10:02:19;;;;;;;7.72;3.72;;;;;;;9.17;65.33;101916.38;5036914;28;20026;-67
2023/04/26 10:04:51;;;;;;;8.00;3.92;;;;;;;9.19;65.12;101919.03;5038451;28;20120;-67
2023/04/26 10:07:18;;;;;;;7.75;3.95;;;;;;;9.18;63.74;101909.44;5039265;28;20021;-67
2023/04/26 10:09:44;;;;;;;6.82;3.65;;;;;;;9.14;63.44;101912.72;5038998;28;20523;-67
2023/04/26 10:12:10;;;;;;;7.70;3.58;;;;;;;9.06;59.92;101917.56;5037100;28;20136;-68
2023/04/26 10:14:36;;;;;;;7.60;3.40;;;;;;;9.02;59.33;101916.53;5036295;28;20103;-68
2023/04/26 10:17:03;;;;;;;7.20;3.72;;;;;;;8.96;59.52;101921.44;5035124;28;20029;-67
2023/04/26 10:19:29;;;;;;;6.63;3.17;;;;;;;8.92;60.44;101918.63;5037526;28;20037;-67
2023/04/26 10:22:03;;;;;;;6.95;3.40;;;;;;;8.84;59.64;101921.75;5053538;23;20084;-93
2023/04/26 10:24:28;;;;;;;6.40;3.28;;;;;;;8.81;59.90;101918.13;5026049;28;20036;-95
2023/04/26 10:26:58;;;;;;;8.02;3.38;;;;;;;8.77;59.20;101913.59;5051975;28;20381;-94
2023/04/26 10:29:26;;;;;;;6.97;3.55;;;;;;;8.73;60.89;101915.13;5034393;28;20123;-95
2023/04/26 10:32:01;;;;;;;7.40;3.40;;;;;;;8.79;62.62;101915.44;5049924;28;20049;-93
2023/04/26 10:34:29;;;;;;;7.45;3.30;;;;;;;8.81;60.26;101910.31;5035322;28;20029;-93
2023/04/26 10:37:22;;;;;;;17.35;7.40;;;;;;;8.82;61.83;101909.47;5037075;28;20052;-95
2023/04/26 10:39:48;;;;;;;7.88;3.65;;;;;;;8.79;60.86;101905.06;5039022;28;20032;-96
2023/04/26 10:43:12;;;;;;;;;;;;;;;;;;;;;
2023/04/26 10:46:07;;;;;;;9.13;3.63;;;;;;;8.82;63.70;101902.59;5061691;28;20092;-96
2023/04/26 10:48:35;;;;;;;6.60;3.40;;;;;;;8.85;64.49;101889.75;5012162;28;20486;-96
2023/04/26 10:51:29;;;;;;;6.25;3.35;;;;;;;8.90;62.26;101895.16;5047886;28;20048;-96
2023/04/26 10:54:24;;;;;;;9.32;3.60;;;;;;;8.92;60.69;101895.22;5037682;28;20264;-96
2023/04/26 10:57:10;;;;;;;7.85;3.45;;;;;;;8.95;60.51;101895.38;5030566;28;20037;-96
2023/04/26 10:59:35;;;;;;;8.48;4.20;;;;;;;9.00;60.81;101891.28;5023012;28;20124;-96
2023/04/26 11:02:01;;;;;;;9.27;4.47;;;;;;;8.99;59.76;101894.69;5015064;28;20464;-94
2023/04/26 11:04:57;;;;;;;8.07;4.00;;;;;;;9.04;61.40;101893.22;5001784;28;20029;-94
2023/04/26 11:08:03;;;;;;;9.18;4.13;;;;;;;9.15;61.27;101896.31;5025078;28;20029;-96
2023/04/26 11:11:31;;;;;;;11.40;3.85;;;;;;;9.31;61.64;101892.69;5043648;28;20048;-96
2023/04/26 11:14:04;;;;;;;6.77;3.80;;;;;;;9.51;61.29;101884.06;5005227;28;20072;-96
2023/04/26 11:16:29;;;;;;;9.07;4.20;;;;;;;9.61;57.88;101887.97;5023512;28;20333;-96
2023/04/26 11:19:01;;;;;;;8.23;4.40;;;;;;;9.62;57.34;101887.16;5027751;28;20051;-96
2023/04/26 11:21:40;;;;;;;9.68;3.75;;;;;;;9.64;58.29;101880.31;5030363;28;20049;-96
2023/04/26 11:26:35;;;;;;;6.95;4.25;;;;;;;9.76;59.19;101879.94;5045181;28;20056;-64
2023/04/26 11:29:00;;;;;;;8.63;4.10;;;;;;;9.80;59.44;101883.59;5046696;28;20430;-64
2023/04/26 11:31:29;;;;;;;8.20;4.28;;;;;;;9.79;59.96;101876.59;5045583;28;20033;-64
2023/04/26 11:34:02;;;;;;;7.38;4.00;;;;;;;9.81;61.34;101870.63;5045341;28;20035;-64
2023/04/26 11:36:28;;;;;;;7.88;4.20;;;;;;;9.79;63.16;101861.88;5046689;28;20036;-64
2023/04/26 11:38:54;;;;;;;7.72;3.80;;;;;;;9.82;62.46;101855.91;5045375;28;20020;-64
2023/04/26 11:41:22;;;;;;;6.97;4.07;;;;;;;9.83;59.53;101866.38;5046904;28;20471;-64